sensor_id;sensor_type;location;lat;lon;timestamp;pressure;altitude;pressure_sealevel;temperature;humidity
75759;BME280;64371;47.566;19.086;2023-10-31T07:25:06;99291.50;;;12.68;100.00
75759;BME280;64371;47.566;19.086;2023-10-31T07:28:09;99298.56;;;12.93;100.00
75759;BME280;64371;47.566;19.086;2023-10-31T07:31:12;99296.69;;;12.93;100.00
75759;BME280;64371;47.566;19.086;2023-10-31T07:34:14;99292.88;;;13.11;100.00
75759;BME280;64371;47.566;19.086;2023-10-31T07:37:18;99288.66;;;13.10;100.00
75759;BME280;64371;47.566;19.086;2023-10-31T07:40:20;99271.69;;;13.11;100.00
75759;BME280;64371;47.566;19.086;2023-10-31T07:43:22;99278.78;;;13.49;100.00
75759;BME280;64371;47.566;19.086;2023-10-31T07:46:25;99285.41;;;13.75;100.00
75759;BME280;64371;47.566;19.086;2023-10-31T07:49:33;99284.97;;;13.85;96.83
75759;BME280;64371;47.566;19.086;2023-10-31T07:52:35;99305.13;;;13.98;99.22
75759;BME280;64371;47.566;19.086;2023-10-31T07:55:38;99295.44;;;14.15;92.36
75759;BME280;64371;47.566;19.086;2023-10-31T07:58:40;99274.78;;;14.41;86.50
75759;BME280;64371;47.566;19.086;2023-10-31T08:01:45;99278.13;;;14.86;83.39
75759;BME280;64371;47.566;19.086;2023-10-31T08:04:52;99295.78;;;16.41;76.27
75759;BME280;64371;47.566;19.086;2023-10-31T08:07:54;99284.22;;;16.65;74.72
75759;BME280;64371;47.566;19.086;2023-10-31T08:10:57;99278.78;;;16.93;72.02
75759;BME280;64371;47.566;19.086;2023-10-31T08:14:01;99291.44;;;17.50;70.46
75759;BME280;64371;47.566;19.086;2023-10-31T08:17:04;99289.31;;;17.40;69.10
75759;BME280;64371;47.566;19.086;2023-10-31T08:20:07;99274.50;;;16.73;71.84
75759;BME280;64371;47.566;19.086;2023-10-31T08:23:09;99284.72;;;16.39;73.76
75759;BME280;64371;47.566;19.086;2023-10-31T08:26:12;99279.47;;;16.27;75.60
75759;BME280;64371;47.566;19.086;2023-10-31T08:29:15;99278.22;;;16.09;74.13
75759;BME280;64371;47.566;19.086;2023-10-31T08:32:18;99283.72;;;16.01;75.06
75759;BME280;64371;47.566;19.086;2023-10-31T08:35:23;99281.97;;;15.92;76.56
75759;BME280;64371;47.566;19.086;2023-10-31T08:38:25;99265.13;;;15.73;75.67
75759;BME280;64371;47.566;19.086;2023-10-31T08:41:33;99258.88;;;15.81;77.49
75759;BME280;64371;47.566;19.086;2023-10-31T08:44:35;99270.31;;;15.97;76.66
75759;BME280;64371;47.566;19.086;2023-10-31T08:47:39;99277.56;;;16.12;75.34
75759;BME280;64371;47.566;19.086;2023-10-31T08:50:42;99276.34;;;16.25;73.79
75759;BME280;64371;47.566;19.086;2023-10-31T08:53:44;99257.41;;;16.42;72.98
75759;BME280;64371;47.566;19.086;2023-10-31T08:56:47;99265.44;;;16.58;72.84
75759;BME280;64371;47.566;19.086;2023-10-31T08:59:49;99269.53;;;16.71;72.38
75759;BME280;64371;47.566;19.086;2023-10-31T09:02:51;99262.66;;;16.70;71.09
75759;BME280;64371;47.566;19.086;2023-10-31T09:05:57;99239.53;;;16.90;70.93
75759;BME280;64371;47.566;19.086;2023-10-31T09:08:59;99248.81;;;17.15;69.42
75759;BME280;64371;47.566;19.086;2023-10-31T09:12:01;99243.09;;;17.32;69.13
75759;BME280;64371;47.566;19.086;2023-10-31T09:15:04;99224.81;;;17.31;64.86
75759;BME280;64371;47.566;19.086;2023-10-31T09:18:07;99236.53;;;17.45;64.98
75759;BME280;64371;47.566;19.086;2023-10-31T09:21:10;99229.72;;;17.48;63.74
75759;BME280;64371;47.566;19.086;2023-10-31T09:24:12;99232.19;;;17.56;64.86
75759;BME280;64371;47.566;19.086;2023-10-31T09:27:16;99226.41;;;17.73;64.22
75759;BME280;64371;47.566;19.086;2023-10-31T09:30:18;99218.31;;;17.66;63.59
75759;BME280;64371;47.566;19.086;2023-10-31T09:33:21;99213.03;;;17.70;63.57
75759;BME280;64371;47.566;19.086;2023-10-31T09:36:23;99201.25;;;17.71;63.19
75759;BME280;64371;47.566;19.086;2023-10-31T09:39:26;99201.09;;;17.83;64.05
75759;BME280;64371;47.566;19.086;2023-10-31T09:42:30;99188.34;;;17.73;62.65
75759;BME280;64371;47.566;19.086;2023-10-31T09:45:32;99206.16;;;17.69;64.41
75759;BME280;64371;47.566;19.086;2023-10-31T09:48:35;99203.00;;;17.63;62.65
75759;BME280;64371;47.566;19.086;2023-10-31T09:51:37;99195.00;;;17.63;60.37
75759;BME280;64371;47.566;19.086;2023-10-31T09:54:41;99195.28;;;17.77;61.00
75759;BME280;64371;47.566;19.086;2023-10-31T09:57:46;99178.63;;;17.84;61.68
75759;BME280;64371;47.566;19.086;2023-10-31T10:00:49;99168.69;;;17.81;61.30
75759;BME280;64371;47.566;19.086;2023-10-31T10:03:51;99168.75;;;17.84;59.60
75759;BME280;64371;47.566;19.086;2023-10-31T10:07:04;99165.53;;;17.98;60.42
75759;BME280;64371;47.566;19.086;2023-10-31T10:10:10;99134.06;;;18.07;59.62
75759;BME280;64371;47.566;19.086;2023-10-31T10:13:12;99130.19;;;18.27;58.66
75759;BME280;64371;47.566;19.086;2023-10-31T10:16:28;99124.47;;;18.29;57.86
75759;BME280;64371;47.566;19.086;2023-10-31T10:19:31;99127.31;;;18.39;57.96
75759;BME280;64371;47.566;19.086;2023-10-31T10:22:40;99113.06;;;18.28;58.89
75759;BME280;64371;47.566;19.086;2023-10-31T10:25:42;99118.22;;;18.44;58.68
75759;BME280;64371;47.566;19.086;2023-10-31T10:28:49;99101.72;;;18.61;57.24
75759;BME280;64371;47.566;19.086;2023-10-31T10:31:51;99098.44;;;18.45;57.82
75759;BME280;64371;47.566;19.086;2023-10-31T10:34:54;99086.16;;;18.40;56.93
75759;BME280;64371;47.566;19.086;2023-10-31T10:37:58;99072.63;;;18.52;58.05
75759;BME280;64371;47.566;19.086;2023-10-31T10:41:02;99045.88;;;18.79;58.32
75759;BME280;64371;47.566;19.086;2023-10-31T10:44:07;99058.66;;;18.96;57.78
75759;BME280;64371;47.566;19.086;2023-10-31T10:47:13;99067.94;;;19.09;57.52
75759;BME280;64371;47.566;19.086;2023-10-31T10:50:18;99069.44;;;19.06;55.32
75759;BME280;64371;47.566;19.086;2023-10-31T10:53:23;99061.00;;;19.01;55.78
75759;BME280;64371;47.566;19.086;2023-10-31T10:56:34;99040.63;;;18.89;55.80
75759;BME280;64371;47.566;19.086;2023-10-31T10:59:43;99034.78;;;18.77;57.14
75759;BME280;64371;47.566;19.086;2023-10-31T11:02:53;99028.91;;;18.64;58.23
75759;BME280;64371;47.566;19.086;2023-10-31T11:05:56;99006.84;;;18.67;57.07
75759;BME280;64371;47.566;19.086;2023-10-31T11:09:00;98999.09;;;18.59;57.11
75759;BME280;64371;47.566;19.086;2023-10-31T11:12:03;98995.59;;;18.51;63.58
75759;BME280;64371;47.566;19.086;2023-10-31T11:15:07;98989.59;;;18.31;66.57
75759;BME280;64371;47.566;19.086;2023-10-31T11:18:11;98974.00;;;18.33;67.58
75759;BME280;64371;47.566;19.086;2023-10-31T11:21:14;98962.34;;;18.15;69.68
75759;BME280;64371;47.566;19.086;2023-10-31T11:24:16;98984.03;;;17.84;71.75
75759;BME280;64371;47.566;19.086;2023-10-31T11:27:19;98986.31;;;17.59;73.19
75759;BME280;64371;47.566;19.086;2023-10-31T11:30:22;98988.16;;;17.33;73.64
75759;BME280;64371;47.566;19.086;2023-10-31T11:33:28;99003.41;;;16.90;75.65
75759;BME280;64371;47.566;19.086;2023-10-31T11:36:35;98995.72;;;16.66;76.67
75759;BME280;64371;47.566;19.086;2023-10-31T11:39:38;98974.63;;;16.57;76.81
75759;BME280;64371;47.566;19.086;2023-10-31T11:42:41;98937.50;;;16.65;73.74
75759;BME280;64371;47.566;19.086;2023-10-31T11:45:44;98919.75;;;16.69;73.01
75759;BME280;64371;47.566;19.086;2023-10-31T11:48:51;98919.75;;;16.69;72.91
75759;BME280;64371;47.566;19.086;2023-10-31T11:51:59;98931.00;;;16.62;73.00
75759;BME280;64371;47.566;19.086;2023-10-31T11:55:02;98931.09;;;16.66;71.65
75759;BME280;64371;47.566;19.086;2023-10-31T11:58:37;98934.53;;;16.66;70.90
75759;BME280;64371;47.566;19.086;2023-10-31T12:01:46;98938.22;;;16.62;70.63
75759;BME280;64371;47.566;19.086;2023-10-31T12:04:49;98912.63;;;16.53;71.37
75759;BME280;64371;47.566;19.086;2023-10-31T12:07:51;98912.75;;;16.41;72.16
75759;BME280;64371;47.566;19.086;2023-10-31T12:11:05;98927.78;;;16.34;73.19
75759;BME280;64371;47.566;19.086;2023-10-31T12:14:08;98877.47;;;16.25;74.04
75759;BME280;64371;47.566;19.086;2023-10-31T12:17:11;98873.66;;;16.23;75.18
75759;BME280;64371;47.566;19.086;2023-10-31T12:20:15;98876.66;;;16.02;77.18
75759;BME280;64371;47.566;19.086;2023-10-31T12:23:21;98901.19;;;15.10;88.68
75759;BME280;64371;47.566;19.086;2023-10-31T12:26:23;98928.19;;;14.69;95.52
75759;BME280;64371;47.566;19.086;2023-10-31T12:29:28;99061.75;;;14.49;99.84
75759;BME280;64371;47.566;19.086;2023-10-31T12:32:30;99203.28;;;14.32;100.00
75759;BME280;64371;47.566;19.086;2023-10-31T12:35:33;99190.31;;;14.07;100.00
75759;BME280;64371;47.566;19.086;2023-10-31T12:38:35;99218.03;;;13.97;100.00
75759;BME280;64371;47.566;19.086;2023-10-31T12:41:41;99201.75;;;13.86;100.00
75759;BME280;64371;47.566;19.086;2023-10-31T12:44:43;99210.25;;;13.80;100.00
75759;BME280;64371;47.566;19.086;2023-10-31T12:51:22;99153.34;;;13.53;100.00
75759;BME280;64371;47.566;19.086;2023-10-31T12:54:31;99148.63;;;13.59;100.00
75759;BME280;64371;47.566;19.086;2023-10-31T12:57:35;99119.13;;;13.48;100.00
75759;BME280;64371;47.566;19.086;2023-10-31T13:00:37;99096.59;;;13.42;100.00
75759;BME280;64371;47.566;19.086;2023-10-31T13:03:49;99104.22;;;13.44;100.00
75759;BME280;64371;47.566;19.086;2023-10-31T13:07:06;99126.28;;;13.48;100.00
75759;BME280;64371;47.566;19.086;2023-10-31T13:10:10;99153.22;;;13.50;100.00
75759;BME280;64371;47.566;19.086;2023-10-31T13:13:12;99171.25;;;13.56;100.00
75759;BME280;64371;47.566;19.086;2023-10-31T13:16:15;99216.56;;;13.87;100.00
75759;BME280;64371;47.566;19.086;2023-10-31T13:19:17;99204.50;;;13.78;100.00
75759;BME280;64371;47.566;19.086;2023-10-31T13:22:21;99155.69;;;13.67;100.00
75759;BME280;64371;47.566;19.086;2023-10-31T13:25:24;99126.94;;;13.45;100.00
75759;BME280;64371;47.566;19.086;2023-10-31T13:28:26;99128.25;;;13.39;100.00
75759;BME280;64371;47.566;19.086;2023-10-31T13:31:31;99169.31;;;13.45;100.00
75759;BME280;64371;47.566;19.086;2023-10-31T13:34:33;99165.31;;;13.39;100.00
75759;BME280;64371;47.566;19.086;2023-10-31T13:37:36;99199.22;;;13.24;100.00
75759;BME280;64371;47.566;19.086;2023-10-31T13:40:39;99236.47;;;13.19;100.00
75759;BME280;64371;47.566;19.086;2023-10-31T13:43:42;99264.16;;;13.22;100.00
75759;BME280;64371;47.566;19.086;2023-10-31T13:46:44;99280.34;;;13.20;100.00
75759;BME280;64371;47.566;19.086;2023-10-31T13:49:47;99283.84;;;13.12;100.00
75759;BME280;64371;47.566;19.086;2023-10-31T13:52:53;99287.53;;;13.20;100.00
75759;BME280;64371;47.566;19.086;2023-10-31T13:56:02;99288.44;;;13.24;100.00
75759;BME280;64371;47.566;19.086;2023-10-31T13:59:05;99266.28;;;13.08;100.00
75759;BME280;64371;47.566;19.086;2023-10-31T14:02:16;99236.94;;;12.92;100.00
75759;BME280;64371;47.566;19.086;2023-10-31T14:05:24;99218.75;;;12.91;100.00
75759;BME280;64371;47.566;19.086;2023-10-31T14:08:26;99216.78;;;12.79;100.00
75759;BME280;64371;47.566;19.086;2023-10-31T14:11:31;99157.28;;;12.64;100.00
75759;BME280;64371;47.566;19.086;2023-10-31T14:14:34;99086.63;;;12.53;100.00
75759;BME280;64371;47.566;19.086;2023-10-31T14:17:37;99038.97;;;12.41;100.00
75759;BME280;64371;47.566;19.086;2023-10-31T14:20:40;98991.16;;;12.34;100.00
75759;BME280;64371;47.566;19.086;2023-10-31T14:23:45;99119.03;;;12.41;100.00
75759;BME280;64371;47.566;19.086;2023-10-31T14:27:05;99104.59;;;12.39;100.00
75759;BME280;64371;47.566;19.086;2023-10-31T14:30:08;99077.81;;;12.20;100.00
75759;BME280;64371;47.566;19.086;2023-10-31T14:33:11;99076.25;;;12.19;100.00
75759;BME280;64371;47.566;19.086;2023-10-31T14:36:14;99123.34;;;12.25;100.00
75759;BME280;64371;47.566;19.086;2023-10-31T14:39:16;99119.47;;;12.23;100.00
75759;BME280;64371;47.566;19.086;2023-10-31T14:42:19;99093.53;;;12.16;100.00
75759;BME280;64371;47.566;19.086;2023-10-31T14:45:21;99102.22;;;12.17;100.00
75759;BME280;64371;47.566;19.086;2023-10-31T14:48:23;99111.06;;;12.21;100.00
75759;BME280;64371;47.566;19.086;2023-10-31T14:51:26;99086.06;;;12.18;100.00
75759;BME280;64371;47.566;19.086;2023-10-31T14:54:28;99108.56;;;12.24;100.00
75759;BME280;64371;47.566;19.086;2023-10-31T14:57:31;99126.06;;;12.37;100.00
75759;BME280;64371;47.566;19.086;2023-10-31T15:00:34;99120.00;;;12.37;100.00
75759;BME280;64371;47.566;19.086;2023-10-31T15:03:36;99144.06;;;12.44;100.00
75759;BME280;64371;47.566;19.086;2023-10-31T15:06:39;99180.91;;;12.70;100.00
75759;BME280;64371;47.566;19.086;2023-10-31T15:09:41;99211.47;;;12.58;100.00
75759;BME280;64371;47.566;19.086;2023-10-31T15:12:43;99231.44;;;12.39;100.00
75759;BME280;64371;47.566;19.086;2023-10-31T15:15:46;99237.09;;;12.29;100.00
75759;BME280;64371;47.566;19.086;2023-10-31T15:18:48;99261.53;;;12.17;100.00
75759;BME280;64371;47.566;19.086;2023-10-31T15:21:51;99278.94;;;12.18;100.00
75759;BME280;64371;47.566;19.086;2023-10-31T15:24:54;99280.81;;;12.09;100.00
75759;BME280;64371;47.566;19.086;2023-10-31T15:27:56;99278.03;;;12.06;100.00
75759;BME280;64371;47.566;19.086;2023-10-31T15:30:58;99283.63;;;11.95;100.00
75759;BME280;64371;47.566;19.086;2023-10-31T15:34:01;99295.94;;;11.91;100.00
75759;BME280;64371;47.566;19.086;2023-10-31T15:37:05;99331.47;;;12.03;100.00
75759;BME280;64371;47.566;19.086;2023-10-31T15:40:08;99320.28;;;12.06;100.00
75759;BME280;64371;47.566;19.086;2023-10-31T15:43:10;99324.34;;;12.03;100.00
75759;BME280;64371;47.566;19.086;2023-10-31T15:46:13;99325.56;;;12.06;100.00
75759;BME280;64371;47.566;19.086;2023-10-31T15:49:15;99326.66;;;12.05;100.00
75759;BME280;64371;47.566;19.086;2023-10-31T15:52:18;99329.00;;;12.06;100.00
75759;BME280;64371;47.566;19.086;2023-10-31T15:55:20;99332.72;;;12.05;100.00
75759;BME280;64371;47.566;19.086;2023-10-31T15:58:22;99334.44;;;12.01;100.00
75759;BME280;64371;47.566;19.086;2023-10-31T16:01:25;99341.09;;;12.07;100.00
75759;BME280;64371;47.566;19.086;2023-10-31T16:04:30;99325.56;;;11.97;100.00
75759;BME280;64371;47.566;19.086;2023-10-31T16:07:32;99332.09;;;11.99;100.00
75759;BME280;64371;47.566;19.086;2023-10-31T16:10:37;99342.81;;;11.94;100.00
75759;BME280;64371;47.566;19.086;2023-10-31T16:13:39;99335.69;;;11.86;100.00
75759;BME280;64371;47.566;19.086;2023-10-31T16:16:48;99354.94;;;11.78;100.00
75759;BME280;64371;47.566;19.086;2023-10-31T16:19:51;99355.09;;;11.73;100.00
75759;BME280;64371;47.566;19.086;2023-10-31T16:22:54;99353.69;;;11.76;100.00
75759;BME280;64371;47.566;19.086;2023-10-31T16:25:56;99378.69;;;11.87;100.00
75759;BME280;64371;47.566;19.086;2023-10-31T16:28:58;99372.19;;;11.93;100.00
75759;BME280;64371;47.566;19.086;2023-10-31T16:32:03;99377.63;;;11.88;100.00
75759;BME280;64371;47.566;19.086;2023-10-31T16:35:07;99375.59;;;11.85;100.00
75759;BME280;64371;47.566;19.086;2023-10-31T16:38:10;99374.19;;;11.70;100.00
75759;BME280;64371;47.566;19.086;2023-10-31T16:41:13;99377.44;;;11.67;100.00
75759;BME280;64371;47.566;19.086;2023-10-31T16:44:15;99363.44;;;11.58;100.00
75759;BME280;64371;47.566;19.086;2023-10-31T16:47:18;99379.13;;;11.55;100.00
75759;BME280;64371;47.566;19.086;2023-10-31T16:50:20;99372.41;;;11.49;100.00
75759;BME280;64371;47.566;19.086;2023-10-31T16:53:24;99397.44;;;11.51;100.00
75759;BME280;64371;47.566;19.086;2023-10-31T16:56:27;99407.06;;;11.56;100.00
75759;BME280;64371;47.566;19.086;2023-10-31T16:59:29;99424.16;;;11.58;100.00
75759;BME280;64371;47.566;19.086;2023-10-31T17:02:32;99452.09;;;11.59;100.00
75759;BME280;64371;47.566;19.086;2023-10-31T17:05:34;99460.31;;;11.49;100.00
75759;BME280;64371;47.566;19.086;2023-10-31T17:08:40;99465.56;;;11.41;100.00
75759;BME280;64371;47.566;19.086;2023-10-31T17:11:43;99487.44;;;11.41;100.00
75759;BME280;64371;47.566;19.086;2023-10-31T17:14:45;99495.53;;;11.45;100.00
75759;BME280;64371;47.566;19.086;2023-10-31T17:17:51;99514.16;;;11.48;100.00
75759;BME280;64371;47.566;19.086;2023-10-31T17:20:58;99532.34;;;11.50;100.00
75759;BME280;64371;47.566;19.086;2023-10-31T17:24:01;99525.47;;;11.71;100.00
75759;BME280;64371;47.566;19.086;2023-10-31T17:27:04;99541.97;;;11.76;100.00
75759;BME280;64371;47.566;19.086;2023-10-31T17:30:07;99531.25;;;11.81;100.00
75759;BME280;64371;47.566;19.086;2023-10-31T17:33:12;99536.41;;;11.95;100.00
75759;BME280;64371;47.566;19.086;2023-10-31T17:36:16;99538.41;;;11.89;100.00
75759;BME280;64371;47.566;19.086;2023-10-31T17:39:18;99528.63;;;11.90;100.00
75759;BME280;64371;47.566;19.086;2023-10-31T17:42:21;99528.16;;;11.88;100.00
75759;BME280;64371;47.566;19.086;2023-10-31T17:45:26;99545.72;;;11.92;100.00
75759;BME280;64371;47.566;19.086;2023-10-31T17:48:28;99529.91;;;12.01;100.00
75759;BME280;64371;47.566;19.086;2023-10-31T17:51:31;99518.38;;;11.88;100.00
75759;BME280;64371;47.566;19.086;2023-10-31T17:54:35;99538.44;;;11.98;100.00
75759;BME280;64371;47.566;19.086;2023-10-31T17:57:38;99533.63;;;12.00;100.00
75759;BME280;64371;47.566;19.086;2023-10-31T18:00:41;99542.94;;;11.97;100.00
75759;BME280;64371;47.566;19.086;2023-10-31T18:03:43;99543.59;;;12.03;100.00
75759;BME280;64371;47.566;19.086;2023-10-31T18:06:46;99542.88;;;11.80;100.00
75759;BME280;64371;47.566;19.086;2023-10-31T18:09:48;99565.72;;;11.76;100.00
75759;BME280;64371;47.566;19.086;2023-10-31T18:12:51;99576.28;;;11.76;100.00
75759;BME280;64371;47.566;19.086;2023-10-31T18:15:54;99561.81;;;11.74;99.95
75759;BME280;64371;47.566;19.086;2023-10-31T18:18:56;99558.53;;;11.68;99.43
75759;BME280;64371;47.566;19.086;2023-10-31T18:21:59;99555.97;;;11.55;99.95
75759;BME280;64371;47.566;19.086;2023-10-31T18:25:03;99551.09;;;11.40;100.00
75759;BME280;64371;47.566;19.086;2023-10-31T18:28:06;99549.78;;;11.28;100.00
75759;BME280;64371;47.566;19.086;2023-10-31T18:31:08;99538.03;;;11.12;100.00
75759;BME280;64371;47.566;19.086;2023-10-31T18:34:11;99514.56;;;11.02;100.00
75759;BME280;64371;47.566;19.086;2023-10-31T18:37:14;99534.09;;;11.01;100.00
75759;BME280;64371;47.566;19.086;2023-10-31T18:40:16;99547.28;;;11.01;100.00
75759;BME280;64371;47.566;19.086;2023-10-31T18:43:21;99537.28;;;10.90;100.00
75759;BME280;64371;47.566;19.086;2023-10-31T18:46:29;99567.13;;;10.99;98.98
75759;BME280;64371;47.566;19.086;2023-10-31T18:49:32;99590.41;;;10.97;98.05
75759;BME280;64371;47.566;19.086;2023-10-31T18:52:34;99579.28;;;10.86;98.91
75759;BME280;64371;47.566;19.086;2023-10-31T18:55:37;99595.09;;;10.86;99.31
75759;BME280;64371;47.566;19.086;2023-10-31T18:58:39;99603.81;;;10.87;98.59
75759;BME280;64371;47.566;19.086;2023-10-31T19:01:50;99609.97;;;10.82;98.64
75759;BME280;64371;47.566;19.086;2023-10-31T19:05:00;99636.94;;;10.79;98.64
75759;BME280;64371;47.566;19.086;2023-10-31T19:08:03;99630.03;;;10.70;100.00
75759;BME280;64371;47.566;19.086;2023-10-31T19:11:06;99632.88;;;10.59;100.00
75759;BME280;64371;47.566;19.086;2023-10-31T19:14:09;99640.59;;;10.42;100.00
75759;BME280;64371;47.566;19.086;2023-10-31T19:17:12;99646.66;;;10.43;100.00
75759;BME280;64371;47.566;19.086;2023-10-31T19:20:16;99633.19;;;10.31;100.00
75759;BME280;64371;47.566;19.086;2023-10-31T19:23:18;99645.78;;;10.34;100.00
75759;BME280;64371;47.566;19.086;2023-10-31T19:26:21;99638.19;;;10.19;100.00
75759;BME280;64371;47.566;19.086;2023-10-31T19:29:23;99641.22;;;10.12;100.00
75759;BME280;64371;47.566;19.086;2023-10-31T19:32:26;99623.41;;;9.90;100.00
75759;BME280;64371;47.566;19.086;2023-10-31T19:35:29;99657.25;;;10.11;100.00
75759;BME280;64371;47.566;19.086;2023-10-31T19:38:33;99656.88;;;10.03;100.00
75759;BME280;64371;47.566;19.086;2023-10-31T19:41:40;99669.69;;;10.24;100.00
75759;BME280;64371;47.566;19.086;2023-10-31T19:44:46;99665.00;;;10.21;100.00
75759;BME280;64371;47.566;19.086;2023-10-31T19:47:48;99659.44;;;10.22;100.00
75759;BME280;64371;47.566;19.086;2023-10-31T19:50:51;99648.56;;;10.10;100.00
75759;BME280;64371;47.566;19.086;2023-10-31T19:53:57;99636.97;;;10.11;99.56
75759;BME280;64371;47.566;19.086;2023-10-31T19:57:03;99643.75;;;10.17;99.96
75759;BME280;64371;47.566;19.086;2023-10-31T20:00:06;99638.97;;;10.19;99.53
75759;BME280;64371;47.566;19.086;2023-10-31T20:03:13;99648.63;;;10.24;99.43
75759;BME280;64371;47.566;19.086;2023-10-31T20:06:20;99663.84;;;10.27;99.77
75759;BME280;64371;47.566;19.086;2023-10-31T20:09:22;99681.00;;;10.24;99.33
75759;BME280;64371;47.566;19.086;2023-10-31T20:12:25;99684.50;;;10.20;100.00
75759;BME280;64371;47.566;19.086;2023-10-31T20:15:27;99695.03;;;10.20;100.00
75759;BME280;64371;47.566;19.086;2023-10-31T20:18:29;99706.09;;;10.22;100.00
75759;BME280;64371;47.566;19.086;2023-10-31T20:21:32;99705.97;;;10.13;100.00
75759;BME280;64371;47.566;19.086;2023-10-31T20:24:34;99708.47;;;10.05;100.00
75759;BME280;64371;47.566;19.086;2023-10-31T20:27:36;99709.50;;;9.90;100.00
75759;BME280;64371;47.566;19.086;2023-10-31T20:30:39;99724.31;;;9.86;100.00
75759;BME280;64371;47.566;19.086;2023-10-31T20:33:41;99713.97;;;9.76;100.00
75759;BME280;64371;47.566;19.086;2023-10-31T20:36:44;99734.66;;;9.82;100.00
75759;BME280;64371;47.566;19.086;2023-10-31T20:39:46;99749.16;;;9.80;100.00
75759;BME280;64371;47.566;19.086;2023-10-31T20:42:49;99731.69;;;9.70;100.00
75759;BME280;64371;47.566;19.086;2023-10-31T20:45:51;99746.13;;;9.73;100.00
75759;BME280;64371;47.566;19.086;2023-10-31T20:48:53;99744.47;;;9.77;100.00
75759;BME280;64371;47.566;19.086;2023-10-31T20:51:56;99757.63;;;9.77;100.00
75759;BME280;64371;47.566;19.086;2023-10-31T20:54:58;99763.91;;;9.81;100.00
75759;BME280;64371;47.566;19.086;2023-10-31T20:58:00;99783.88;;;9.82;100.00
75759;BME280;64371;47.566;19.086;2023-10-31T21:01:04;99789.34;;;9.85;100.00
75759;BME280;64371;47.566;19.086;2023-10-31T21:04:07;99781.03;;;9.78;100.00
75759;BME280;64371;47.566;19.086;2023-10-31T21:07:09;99786.00;;;9.80;100.00
75759;BME280;64371;47.566;19.086;2023-10-31T21:10:12;99788.50;;;9.90;100.00
75759;BME280;64371;47.566;19.086;2023-10-31T21:13:15;99786.22;;;9.83;100.00
75759;BME280;64371;47.566;19.086;2023-10-31T21:16:20;99789.22;;;9.77;100.00
75759;BME280;64371;47.566;19.086;2023-10-31T21:19:22;99803.22;;;9.72;100.00
75759;BME280;64371;47.566;19.086;2023-10-31T21:22:37;99794.84;;;9.70;100.00
75759;BME280;64371;47.566;19.086;2023-10-31T21:25:39;99802.03;;;9.65;100.00
75759;BME280;64371;47.566;19.086;2023-10-31T21:28:44;99792.72;;;9.54;100.00
75759;BME280;64371;47.566;19.086;2023-10-31T21:31:48;99801.91;;;9.56;100.00
75759;BME280;64371;47.566;19.086;2023-10-31T21:34:50;99811.84;;;9.59;100.00
75759;BME280;64371;47.566;19.086;2023-10-31T21:37:53;99816.19;;;9.50;100.00
75759;BME280;64371;47.566;19.086;2023-10-31T21:40:55;99825.72;;;9.46;100.00
75759;BME280;64371;47.566;19.086;2023-10-31T21:43:57;99827.06;;;9.44;100.00
75759;BME280;64371;47.566;19.086;2023-10-31T21:47:07;99827.13;;;9.39;100.00
75759;BME280;64371;47.566;19.086;2023-10-31T21:50:10;99823.41;;;9.21;100.00
75759;BME280;64371;47.566;19.086;2023-10-31T21:53:13;99839.69;;;9.23;100.00
75759;BME280;64371;47.566;19.086;2023-10-31T21:56:15;99826.88;;;9.16;100.00
75759;BME280;64371;47.566;19.086;2023-10-31T21:59:18;99841.38;;;9.14;100.00
75759;BME280;64371;47.566;19.086;2023-10-31T22:02:20;99827.88;;;9.20;100.00
75759;BME280;64371;47.566;19.086;2023-10-31T22:05:23;99846.66;;;9.32;100.00
75759;BME280;64371;47.566;19.086;2023-10-31T22:08:25;99846.47;;;9.48;100.00
75759;BME280;64371;47.566;19.086;2023-10-31T22:11:27;99854.72;;;9.60;100.00
75759;BME280;64371;47.566;19.086;2023-10-31T22:14:30;99859.00;;;9.74;100.00
75759;BME280;64371;47.566;19.086;2023-10-31T22:17:32;99865.19;;;9.83;100.00
75759;BME280;64371;47.566;19.086;2023-10-31T22:20:35;99862.28;;;9.85;100.00
75759;BME280;64371;47.566;19.086;2023-10-31T22:23:37;99868.75;;;9.92;100.00
75759;BME280;64371;47.566;19.086;2023-10-31T22:26:42;99877.94;;;9.95;100.00
75759;BME280;64371;47.566;19.086;2023-10-31T22:29:44;99874.59;;;9.89;100.00
75759;BME280;64371;47.566;19.086;2023-10-31T22:32:47;99873.66;;;9.80;100.00
75759;BME280;64371;47.566;19.086;2023-10-31T22:35:53;99886.91;;;9.75;100.00
75759;BME280;64371;47.566;19.086;2023-10-31T22:38:56;99886.97;;;9.70;100.00
75759;BME280;64371;47.566;19.086;2023-10-31T22:41:58;99887.59;;;9.62;100.00
75759;BME280;64371;47.566;19.086;2023-10-31T22:45:04;99895.53;;;9.57;100.00
75759;BME280;64371;47.566;19.086;2023-10-31T22:48:15;99891.38;;;9.56;100.00
75759;BME280;64371;47.566;19.086;2023-10-31T22:51:31;99900.19;;;9.65;100.00
75759;BME280;64371;47.566;19.086;2023-10-31T22:54:35;99902.75;;;9.70;100.00
75759;BME280;64371;47.566;19.086;2023-10-31T22:57:38;99891.25;;;9.85;100.00
75759;BME280;64371;47.566;19.086;2023-10-31T23:00:42;99905.03;;;9.95;100.00
75759;BME280;64371;47.566;19.086;2023-10-31T23:03:44;99911.09;;;9.96;100.00
75759;BME280;64371;47.566;19.086;2023-10-31T23:06:48;99910.38;;;9.90;100.00
75759;BME280;64371;47.566;19.086;2023-10-31T23:09:50;99910.84;;;9.74;100.00
75759;BME280;64371;47.566;19.086;2023-10-31T23:12:53;99907.53;;;9.68;100.00
75759;BME280;64371;47.566;19.086;2023-10-31T23:15:59;99909.50;;;9.58;100.00
75759;BME280;64371;47.566;19.086;2023-10-31T23:19:01;99924.44;;;9.62;100.00
75759;BME280;64371;47.566;19.086;2023-10-31T23:22:03;99925.91;;;9.50;100.00